createdAt,value
2023-04-26T00:08:22.427Z,9.23
2023-04-26T00:18:49.483Z,9.30
2023-04-26T00:29:15.143Z,9.28
2023-04-26T00:39:40.998Z,9.24
2023-04-26T00:50:08.503Z,9.18
2023-04-26T01:00:34.307Z,9.11
2023-04-26T01:11:01.242Z,8.96
2023-04-26T01:21:27.416Z,8.79
2023-04-26T01:31:53.223Z,8.62
2023-04-26T01:42:19.035Z,8.52
2023-04-26T01:52:45.251Z,8.43
2023-04-26T02:03:11.776Z,8.24
2023-04-26T02:13:37.936Z,8.14
2023-04-26T02:24:03.683Z,7.98
2023-04-26T02:34:29.630Z,7.85
2023-04-26T02:45:03.504Z,7.78
2023-04-26T02:55:29.688Z,7.73
2023-04-26T03:05:55.351Z,7.71
2023-04-26T03:16:24.140Z,7.79
2023-04-26T03:26:49.916Z,7.78
2023-04-26T03:37:15.740Z,7.67
2023-04-26T03:47:41.534Z,7.57
2023-04-26T03:58:08.326Z,7.61
2023-04-26T04:08:33.940Z,7.57
2023-04-26T04:18:59.762Z,7.51
2023-04-26T04:29:25.402Z,7.62
2023-04-26T04:39:51.494Z,7.70
2023-04-26T04:50:17.872Z,7.72
2023-04-26T05:00:43.569Z,7.82
2023-04-26T05:11:09.433Z,7.87
2023-04-26T05:21:35.277Z,8.24
2023-04-26T05:32:01.338Z,8.66
2023-04-26T05:42:27.261Z,9.26
2023-04-26T05:52:53.280Z,9.74
2023-04-26T06:03:19.682Z,9.98
2023-04-26T06:13:45.794Z,10.37
2023-04-26T06:24:11.899Z,10.72
2023-04-26T06:34:38.495Z,10.88
2023-04-26T06:45:05.191Z,11.14
2023-04-26T06:55:32.529Z,11.20
2023-04-26T07:05:57.896Z,11.26
2023-04-26T07:16:23.444Z,11.18
2023-04-26T07:26:49.733Z,10.83
2023-04-26T07:37:16.199Z,10.55
2023-04-26T07:47:42.076Z,10.08
2023-04-26T07:58:08.457Z,9.87
2023-04-26T08:08:35.254Z,9.95
2023-04-26T08:19:03.679Z,9.80
2023-04-26T08:29:29.639Z,9.62
2023-04-26T08:39:55.312Z,9.89
2023-04-26T08:50:24.867Z,10.01
2023-04-26T09:00:51.584Z,9.91
2023-04-26T09:11:17.684Z,9.91
2023-04-26T09:21:46.426Z,9.67
2023-04-26T09:32:12.050Z,9.43
2023-04-26T09:42:38.541Z,9.43
2023-04-26T09:53:05.292Z,9.33
2023-04-26T10:03:33.237Z,9.21
2023-04-26T10:13:59.974Z,9.32
2023-04-26T10:24:27.375Z,9.39
2023-04-26T10:35:12.903Z,9.35
2023-04-26T10:45:40.243Z,9.66
2023-04-26T10:56:07.867Z,9.71
2023-04-26T11:06:51.202Z,9.78
2023-04-26T11:17:17.217Z,9.92
2023-04-26T11:27:46.061Z,9.72
2023-04-26T11:38:10.549Z,9.78
2023-04-26T11:48:37.515Z,9.78
2023-04-26T11:59:03.936Z,9.68
2023-04-26T12:09:29.994Z,9.78
2023-04-26T12:19:56.296Z,10.05
2023-04-26T12:30:22.778Z,9.95
2023-04-26T12:40:48.737Z,9.88
2023-04-26T12:51:15.238Z,10.04
2023-04-26T13:01:41.240Z,10.28
2023-04-26T13:12:08.115Z,10.54
2023-04-26T13:22:34.007Z,10.66
2023-04-26T13:33:00.451Z,10.53
2023-04-26T13:43:26.647Z,10.39
2023-04-26T13:53:52.754Z,10.24
2023-04-26T14:04:19.081Z,10.30
2023-04-26T14:14:46.416Z,10.36
2023-04-26T14:25:13.035Z,10.32
2023-04-26T14:35:38.874Z,10.30
2023-04-26T14:46:04.741Z,10.31
2023-04-26T14:56:35.387Z,10.35
2023-04-26T15:07:01.127Z,10.30
2023-04-26T15:17:27.354Z,10.19
2023-04-26T15:27:53.405Z,10.15
2023-04-26T15:38:19.054Z,10.23
2023-04-26T15:48:44.952Z,10.30
2023-04-26T15:59:10.272Z,10.25
2023-04-26T16:09:37.363Z,10.13
2023-04-26T16:20:07.484Z,10.07
2023-04-26T16:30:33.261Z,9.99
2023-04-26T16:41:01.491Z,9.92
2023-04-26T16:51:27.927Z,9.84
2023-04-26T17:01:54.327Z,9.72
2023-04-26T17:12:19.826Z,9.65
2023-04-26T17:22:45.831Z,9.54
2023-04-26T17:33:11.580Z,9.35
2023-04-26T17:43:37.576Z,9.26
2023-04-26T17:54:03.280Z,9.33
2023-04-26T18:04:29.252Z,9.51
2023-04-26T18:14:55.070Z,9.54
2023-04-26T18:25:21.200Z,9.47
2023-04-26T18:35:49.469Z,9.30
2023-04-26T18:46:13.951Z,8.98
2023-04-26T18:56:41.439Z,8.82
2023-04-26T19:07:07.044Z,8.78
2023-04-26T19:17:33.639Z,8.70
2023-04-26T19:27:59.038Z,8.69
2023-04-26T19:38:25.905Z,8.67
2023-04-26T19:48:51.466Z,8.47
2023-04-26T19:59:17.205Z,8.29
2023-04-26T20:09:43.193Z,8.17
2023-04-26T20:20:12.172Z,8.07
2023-04-26T20:30:38.201Z,7.96
2023-04-26T20:41:04.569Z,7.77
2023-04-26T20:51:30.559Z,7.54
2023-04-26T21:01:57.036Z,7.26
2023-04-26T21:12:22.937Z,7.15
2023-04-26T21:22:48.714Z,6.95
2023-04-26T21:33:16.171Z,6.86
2023-04-26T21:43:41.587Z,6.75
2023-04-26T21:54:07.557Z,6.46
2023-04-26T22:04:33.396Z,6.40
2023-04-26T22:14:59.180Z,6.29
2023-04-26T22:25:26.736Z,6.23
2023-04-26T22:35:54.301Z,6.19
2023-04-26T22:46:19.897Z,6.18
2023-04-26T22:56:45.466Z,6.24
2023-04-26T23:07:11.343Z,6.30
2023-04-26T23:17:37.186Z,6.27
2023-04-26T23:28:03.322Z,6.31
2023-04-26T23:38:28.776Z,6.34
2023-04-26T23:48:54.806Z,6.35
2023-04-26T23:59:20.615Z,6.34
